Time;durP1;ratioP1;P1;durP2;ratioP2;P2;SDS_P1;SDS_P2;PMS_P1;PMS_P2;Temp;Humidity;BMP_temperature;BMP_pressure;BME280_temperature;BME280_humidity;BME280_pressure;Samples;Min_cycle;Max_cycle;Signal;HPM_P1;HPM_P2
2021/01/29 00:03:38;;;;;;;0.50;0.50;;;8.20;99.90;;;;;;5959222;24;20031;-84
2021/01/29 00:34:11;;;;;;;0.30;0.30;;;8.10;99.90;;;;;;5996519;24;20103;-82
2021/01/29 00:48:13;;;;;;;1.15;0.60;;;8.10;99.90;;;;;;5917326;24;20064;-85
2021/01/29 00:50:39;;;;;;;0.60;0.60;;;8.10;99.90;;;;;;5985864;23;20027;-83
2021/01/29 00:53:07;;;;;;;0.50;0.47;;;8.10;99.90;;;;;;6024946;23;20016;-84
2021/01/29 00:55:33;;;;;;;1.92;0.32;;;8.10;99.90;;;;;;6196887;23;20005;-85
2021/01/29 00:57:59;;;;;;;0.32;0.30;;;8.10;99.90;;;;;;6196587;23;20079;-85
2021/01/29 01:00:25;;;;;;;0.47;0.47;;;8.00;99.90;;;;;;6169644;23;20181;-85
2021/01/29 01:02:51;;;;;;;1.98;0.50;;;8.00;99.90;;;;;;6187448;23;19998;-83
2021/01/29 01:05:18;;;;;;;1.23;0.50;;;8.00;99.90;;;;;;6163196;23;20080;-83
2021/01/29 01:07:44;;;;;;;0.32;0.32;;;8.00;99.90;;;;;;6165709;23;20089;-83
2021/01/29 01:10:10;;;;;;;0.47;0.47;;;7.90;99.90;;;;;;6206987;23;19989;-82
2021/01/29 01:12:36;;;;;;;0.75;0.40;;;7.90;99.90;;;;;;6171873;23;20060;-83
2021/01/29 01:15:09;;;;;;;1.20;0.32;;;7.80;99.90;;;;;;6163020;23;20393;-82
2021/01/29 01:17:35;;;;;;;0.40;0.40;;;7.80;99.90;;;;;;6163129;23;20008;-83
2021/01/29 01:20:00;;;;;;;0.52;0.52;;;7.80;99.90;;;;;;6163319;23;20005;-82
2021/01/29 01:22:26;;;;;;;0.38;0.38;;;7.80;99.90;;;;;;6163419;23;20009;-83
2021/01/29 01:24:52;;;;;;;1.10;0.50;;;7.80;99.90;;;;;;6190102;23;20429;-82
2021/01/29 01:27:18;;;;;;;0.20;0.20;;;7.80;99.90;;;;;;6189914;23;20385;-81
2021/01/29 01:29:44;;;;;;;1.00;0.40;;;7.90;99.90;;;;;;6192811;23;20009;-83
2021/01/29 01:32:10;;;;;;;0.68;0.38;;;7.80;99.90;;;;;;6163187;23;20071;-83
2021/01/29 01:34:35;;;;;;;1.25;0.20;;;7.80;99.90;;;;;;6164162;23;20012;-82
2021/01/29 01:37:02;;;;;;;0.40;0.30;;;7.80;99.90;;;;;;6166762;23;20001;-84
2021/01/29 01:39:28;;;;;;;1.00;0.35;;;7.80;99.90;;;;;;6192481;23;20001;-83
2021/01/29 01:41:55;;;;;;;0.30;0.30;;;7.90;99.90;;;;;;6164420;23;20016;-83
2021/01/29 01:44:38;;;;;;;0.20;0.20;;;7.80;99.90;;;;;;6191436;23;20000;-84
2021/01/29 01:47:09;;;;;;;;;;;7.90;99.90;;;;;;6163696;23;20080;-84
2021/01/29 01:49:36;;;;;;;0.30;0.30;;;7.90;99.90;;;;;;6189776;23;19927;-83
2021/01/29 01:52:09;;;;;;;0.22;0.20;;;7.90;99.90;;;;;;6164980;23;20040;-82
2021/01/29 01:54:39;;;;;;;;;;;7.90;99.90;;;;;;6191218;23;20001;-82
2021/01/29 01:57:05;;;;;;;0.28;0.25;;;7.90;99.90;;;;;;6190763;23;19982;-82
2021/01/29 01:59:37;;;;;;;0.68;0.30;;;7.90;99.90;;;;;;6164004;23;20008;-83
2021/01/29 02:02:06;;;;;;;0.52;0.40;;;7.90;99.90;;;;;;6190209;23;20001;-83
2021/01/29 02:04:35;;;;;;;0.77;0.30;;;7.90;99.90;;;;;;6165539;23;20092;-83
2021/01/29 02:07:18;;;;;;;0.40;0.30;;;7.90;99.90;;;;;;6190589;23;20016;-82
2021/01/29 02:09:47;;;;;;;1.63;0.30;;;7.80;99.90;;;;;;6164186;23;20025;-83
2021/01/29 02:12:13;;;;;;;0.20;0.20;;;7.80;99.90;;;;;;6192446;23;19997;-82
2021/01/29 02:14:41;;;;;;;0.10;0.10;;;7.80;99.90;;;;;;6163871;23;20009;-82
2021/01/29 02:17:23;;;;;;;0.20;0.20;;;7.80;99.90;;;;;;6164424;23;20005;-80
2021/01/29 02:19:57;;;;;;;0.30;0.30;;;7.80;99.90;;;;;;6165150;23;20009;-81
2021/01/29 02:22:29;;;;;;;1.23;0.20;;;7.80;99.90;;;;;;6164834;23;20005;-83
2021/01/29 02:25:22;;;;;;;0.35;0.35;;;7.80;99.90;;;;;;6164577;23;20005;-82
2021/01/29 02:27:56;;;;;;;0.30;0.30;;;7.80;99.90;;;;;;6194320;23;20020;-83
2021/01/29 02:30:45;;;;;;;1.67;0.20;;;;;;;;;;6199357;23;20012;-82
2021/01/29 02:34:08;;;;;;;1.45;0.20;;;7.80;99.90;;;;;;6192786;23;20075;-82
2021/01/29 02:37:10;;;;;;;0.30;0.10;;;7.80;99.90;;;;;;6050011;23;20086;-83
2021/01/29 02:40:09;;;;;;;0.40;0.20;;;7.90;99.90;;;;;;6075249;23;20007;-83
2021/01/29 02:42:44;;;;;;;0.30;0.30;;;7.90;99.90;;;;;;6165733;23;20012;-84
2021/01/29 02:45:31;;;;;;;0.13;0.13;;;7.90;99.90;;;;;;6165966;23;20009;-82
2021/01/29 02:48:11;;;;;;;0.10;0.10;;;;;;;;;;6192962;23;20349;-83
2021/01/29 02:50:50;;;;;;;0.40;0.40;;;8.00;99.90;;;;;;6191344;23;20009;-83
2021/01/29 02:53:30;;;;;;;0.15;0.15;;;8.00;99.90;;;;;;6192132;23;20340;-83
2021/01/29 02:56:12;;;;;;;1.55;0.20;;;8.00;99.90;;;;;;6167373;23;20016;-83
2021/01/29 02:58:52;;;;;;;0.17;0.17;;;8.10;99.90;;;;;;6167953;23;20036;-82
2021/01/29 03:01:43;;;;;;;0.10;0.10;;;8.00;99.90;;;;;;6167858;23;20264;-83
2021/01/29 03:04:51;;;;;;;0.30;0.20;;;8.00;99.90;;;;;;6195080;23;20012;-83
2021/01/29 03:07:23;;;;;;;0.20;0.20;;;7.90;99.90;;;;;;6145222;23;20084;-82
2021/01/29 03:09:58;;;;;;;;;;;7.90;99.90;;;;;;6168927;23;20005;-83
2021/01/29 03:12:44;;;;;;;0.20;0.20;;;7.80;99.90;;;;;;6168086;23;19970;-81
2021/01/29 03:15:22;;;;;;;0.77;0.40;;;7.80;99.90;;;;;;6144520;23;20005;-82
2021/01/29 03:18:21;;;;;;;1.85;0.30;;;7.80;99.90;;;;;;6167014;23;20064;-81
2021/01/29 03:21:20;;;;;;;0.25;0.10;;;7.80;99.90;;;;;;6167832;23;20016;-80
2021/01/29 03:23:57;;;;;;;1.08;0.38;;;7.80;99.90;;;;;;6166567;23;20005;-83
2021/01/29 03:26:31;;;;;;;0.20;0.20;;;7.80;99.90;;;;;;6166737;23;20007;-82
2021/01/29 03:29:01;;;;;;;0.22;0.13;;;7.80;99.90;;;;;;6166613;23;20057;-81
2021/01/29 03:31:31;;;;;;;0.20;0.10;;;7.80;99.90;;;;;;6165827;23;20005;-82
2021/01/29 03:34:10;;;;;;;0.65;0.20;;;7.70;99.90;;;;;;6191074;23;19997;-84
2021/01/29 03:37:12;;;;;;;0.25;0.20;;;7.70;99.90;;;;;;6194379;23;20025;-82
2021/01/29 03:39:38;;;;;;;1.38;0.20;;;7.70;99.90;;;;;;6205472;23;20049;-81
2021/01/29 03:42:07;;;;;;;0.30;0.30;;;7.70;99.90;;;;;;6180065;23;20137;-79
2021/01/29 03:44:57;;;;;;;0.13;0.10;;;7.70;99.90;;;;;;6209294;23;19992;-80
2021/01/29 03:47:38;;;;;;;0.20;0.20;;;7.70;99.90;;;;;;6184704;23;20017;-78
2021/01/29 03:50:35;;;;;;;0.15;0.15;;;7.70;99.90;;;;;;6210936;23;19993;-80
2021/01/29 03:53:39;;;;;;;1.20;0.30;;;7.80;99.90;;;;;;6184319;23;19997;-80
2021/01/29 03:56:14;;;;;;;0.80;0.40;;;7.70;99.90;;;;;;6125985;23;20055;-80
2021/01/29 03:59:37;;;;;;;1.10;0.70;;;7.60;99.90;;;;;;6183165;23;20005;-83
2021/01/29 04:02:03;;;;;;;;;;;;;;;;;;6064080;23;20164;-80
2021/01/29 04:04:36;;;;;;;0.40;0.40;;;7.40;99.90;;;;;;6088978;23;19905;-81
2021/01/29 04:07:18;;;;;;;3.05;0.65;;;7.40;99.90;;;;;;6140194;23;20084;-80
2021/01/29 04:10:06;;;;;;;3.17;0.90;;;7.40;99.90;;;;;;6179188;23;20131;-82
2021/01/29 04:13:01;;;;;;;1.58;0.65;;;7.40;99.90;;;;;;6176208;23;20235;-82
2021/01/29 04:15:33;;;;;;;1.08;0.80;;;7.40;99.90;;;;;;6164768;23;20425;-83
2021/01/29 04:18:11;;;;;;;1.70;1.13;;;7.30;99.90;;;;;;6163992;23;20028;-82
2021/01/29 04:20:45;;;;;;;2.92;0.60;;;7.30;99.90;;;;;;6191187;23;20238;-84
2021/01/29 04:23:30;;;;;;;1.75;1.00;;;7.30;99.90;;;;;;6170927;23;20005;-83
2021/01/29 04:26:06;;;;;;;1.70;0.73;;;7.30;99.90;;;;;;6169019;23;20097;-82
2021/01/29 04:28:38;;;;;;;1.08;0.75;;;7.30;99.90;;;;;;6171978;23;20015;-82
2021/01/29 04:31:05;;;;;;;;;;;7.30;99.90;;;;;;6173370;23;20069;-84
2021/01/29 04:33:38;;;;;;;2.80;0.50;;;7.30;99.90;;;;;;6176507;23;19909;-80
2021/01/29 04:36:06;;;;;;;0.60;0.52;;;7.30;99.90;;;;;;6176422;23;20032;-81
2021/01/29 04:38:35;;;;;;;1.42;0.90;;;7.40;99.90;;;;;;6171989;23;20436;-80
2021/01/29 04:41:29;;;;;;;0.45;0.43;;;7.40;99.90;;;;;;6200935;23;19986;-81
2021/01/29 10:50:24;;;;;;;0.85;0.30;;;9.90;92.20;;;;;;6219106;23;20025;-80
2021/01/29 10:53:04;;;;;;;0.30;0.22;;;10.10;91.80;;;;;;6220389;23;20008;-81
2021/01/29 10:55:36;;;;;;;0.20;0.20;;;10.10;91.70;;;;;;6210698;23;20000;-82
2021/01/29 10:58:08;;;;;;;2.23;0.47;;;10.30;91.50;;;;;;6227424;23;20003;-82
2021/01/29 11:00:35;;;;;;;3.40;0.30;;;10.40;90.90;;;;;;6229446;23;20301;-82
2021/01/29 11:03:14;;;;;;;0.10;0.10;;;10.40;90.70;;;;;;6202279;23;20027;-84
2021/01/29 11:05:43;;;;;;;0.75;0.50;;;10.30;90.90;;;;;;6202091;23;20004;-83
2021/01/29 11:08:21;;;;;;;0.20;0.20;;;10.30;90.90;;;;;;6229273;23;20000;-83
2021/01/29 11:11:05;;;;;;;0.28;0.28;;;10.50;91.00;;;;;;6228722;23;20015;-81
2021/01/29 11:14:12;;;;;;;0.70;0.47;;;10.50;90.20;;;;;;6227611;23;20276;-82
2021/01/29 11:16:40;;;;;;;0.30;0.30;;;10.40;90.60;;;;;;6228075;23;19993;-81
2021/01/29 11:19:13;;;;;;;0.25;0.10;;;10.30;91.00;;;;;;6201212;23;19997;-82
2021/01/29 11:21:54;;;;;;;0.20;0.20;;;10.10;91.00;;;;;;6202078;23;20296;-80
2021/01/29 11:24:51;;;;;;;2.10;0.20;;;10.10;91.40;;;;;;6201390;23;20004;-84
2021/01/29 11:27:31;;;;;;;0.40;0.30;;;10.10;91.40;;;;;;6230184;23;20056;-82
2021/01/29 11:30:07;;;;;;;0.88;0.30;;;10.20;91.00;;;;;;6200268;23;20416;-80
2021/01/29 11:32:41;;;;;;;0.50;0.30;;;10.20;90.60;;;;;;6201203;23;20001;-82
2021/01/29 11:35:37;;;;;;;0.17;0.17;;;10.30;90.30;;;;;;6202851;23;20015;-79
2021/01/29 11:38:11;;;;;;;0.45;0.25;;;10.20;89.90;;;;;;6217086;23;20425;-76
2021/01/29 11:40:52;;;;;;;0.70;0.20;;;10.20;89.30;;;;;;6192601;23;20004;-79
2021/01/29 11:43:28;;;;;;;0.88;0.28;;;10.30;88.40;;;;;;6219586;23;20001;-78
2021/01/29 11:46:10;;;;;;;1.13;0.17;;;10.60;87.10;;;;;;6220635;23;20007;-80
2021/01/29 11:49:01;;;;;;;0.80;0.20;;;10.50;86.90;;;;;;6194151;23;20024;-79
2021/01/29 11:51:48;;;;;;;0.63;0.30;;;10.50;85.50;;;;;;6220618;23;20003;-80
2021/01/29 11:54:17;;;;;;;6.22;0.40;;;10.70;85.80;;;;;;6219399;23;20467;-78
2021/01/29 11:56:58;;;;;;;1.13;0.30;;;10.80;84.10;;;;;;6193884;23;20112;-78
2021/01/29 11:59:37;;;;;;;2.28;0.38;;;10.90;85.00;;;;;;6191882;23;20395;-79
2021/01/29 12:02:14;;;;;;;0.68;0.30;;;11.00;82.60;;;;;;6221817;23;19997;-79
2021/01/29 12:04:54;;;;;;;0.65;0.10;;;10.90;81.90;;;;;;6229219;23;19996;-80
2021/01/29 12:07:40;;;;;;;1.33;0.30;;;10.80;82.00;;;;;;6204983;23;20023;-79
2021/01/29 12:10:14;;;;;;;1.10;0.80;;;10.60;84.40;;;;;;6232940;23;20044;-79
2021/01/29 12:13:09;;;;;;;0.25;0.25;;;10.60;85.00;;;;;;6234226;23;19996;-80
2021/01/29 12:15:54;;;;;;;0.98;0.40;;;10.50;85.00;;;;;;6214953;23;20090;-80
2021/01/29 12:18:22;;;;;;;2.10;0.40;;;10.60;83.60;;;;;;6221040;23;20333;-78
2021/01/29 12:20:48;;;;;;;0.85;0.30;;;10.60;83.80;;;;;;6192987;23;20728;-79
2021/01/29 12:23:43;;;;;;;1.55;0.22;;;10.80;82.80;;;;;;6195088;23;20000;-79
2021/01/29 12:26:15;;;;;;;4.38;2.63;;;10.70;82.50;;;;;;6223630;23;20076;-78
2021/01/29 12:29:02;;;;;;;0.30;0.30;;;10.70;83.00;;;;;;6196633;23;20004;-79
2021/01/29 12:31:41;;;;;;;1.58;0.40;;;10.70;82.00;;;;;;6197843;23;20008;-80
2021/01/29 12:34:18;;;;;;;2.75;0.40;;;10.70;81.70;;;;;;6222019;23;20083;-80
2021/01/29 12:36:52;;;;;;;5.82;0.40;;;10.50;80.50;;;;;;6221859;23;20019;-79
2021/01/29 12:39:30;;;;;;;1.00;0.30;;;10.40;80.20;;;;;;6192722;23;20054;-78
2021/01/29 12:42:18;;;;;;;1.75;0.60;;;10.50;78.80;;;;;;6192925;23;20004;-79
2021/01/29 12:45:00;;;;;;;2.40;0.40;;;10.40;79.60;;;;;;6195770;23;20387;-80
2021/01/29 12:47:48;;;;;;;3.15;0.40;;;10.40;80.30;;;;;;6220057;23;20055;-84
2021/01/29 12:51:14;;;;;;;1.10;1.10;;;10.40;81.10;;;;;;6200676;23;20012;-85
2021/01/29 12:54:04;;;;;;;2.63;0.50;;;11.00;78.70;;;;;;6136762;23;20001;-84
2021/01/29 12:56:36;;;;;;;7.88;0.30;;;11.90;72.90;;;;;;6138718;23;20002;-83
2021/01/29 12:59:03;;;;;;;2.25;0.47;;;12.30;70.10;;;;;;6177284;23;20000;-84
2021/01/29 13:01:35;;;;;;;1.08;0.40;;;12.10;70.50;;;;;;6207616;23;20060;-84
2021/01/29 13:04:24;;;;;;;1.35;0.30;;;12.40;67.10;;;;;;6235280;23;19997;-83
2021/01/29 13:07:11;;;;;;;2.88;0.75;;;12.50;66.10;;;;;;6235944;23;20007;-82
2021/01/29 13:09:47;;;;;;;0.70;0.30;;;11.70;68.30;;;;;;6236302;23;20005;-83
2021/01/29 13:12:18;;;;;;;3.05;0.30;;;11.50;68.50;;;;;;6236447;23;20028;-83
2021/01/29 13:15:22;;;;;;;0.17;0.10;;;11.60;69.60;;;;;;6234495;23;20020;-83
2021/01/29 13:17:57;;;;;;;3.22;0.77;;;11.90;68.40;;;;;;6210353;23;20024;-84
2021/01/29 13:20:23;;;;;;;0.40;0.40;;;12.00;67.40;;;;;;6237152;23;20005;-84
2021/01/29 13:22:58;;;;;;;2.15;0.30;;;11.90;68.40;;;;;;6210163;23;20030;-83
2021/01/29 13:25:31;;;;;;;2.65;0.13;;;12.00;68.40;;;;;;6237287;23;20008;-83
2021/01/29 13:28:07;;;;;;;1.10;0.32;;;11.20;70.50;;;;;;6237900;23;20011;-84
2021/01/29 13:30:42;;;;;;;2.15;0.10;;;10.90;72.40;;;;;;6238091;23;20000;-83
2021/01/29 13:33:26;;;;;;;0.20;0.20;;;11.00;73.00;;;;;;6209819;23;20016;-83
2021/01/29 13:36:29;;;;;;;2.65;0.25;;;10.90;73.30;;;;;;6235358;23;20023;-83
2021/01/29 13:39:22;;;;;;;0.65;0.30;;;10.70;74.50;;;;;;6205492;23;20005;-83
2021/01/29 13:42:02;;;;;;;0.10;0.10;;;10.80;74.10;;;;;;6210518;23;20020;-83
2021/01/29 13:44:39;;;;;;;1.05;0.15;;;10.60;75.00;;;;;;6206424;23;20060;-83
2021/01/29 13:47:25;;;;;;;1.20;0.30;;;10.50;75.90;;;;;;6234706;23;20014;-83
2021/01/29 13:49:54;;;;;;;1.27;0.25;;;;;;;;;;6209434;23;20000;-83
2021/01/29 13:52:29;;;;;;;1.30;0.30;;;10.20;76.40;;;;;;6235668;23;20008;-83
2021/01/29 13:54:56;;;;;;;1.08;0.10;;;9.90;78.50;;;;;;6235529;23;20008;-83
2021/01/29 13:57:40;;;;;;;1.50;0.10;;;9.70;79.10;;;;;;6235216;23;20047;-83
2021/01/29 14:00:22;;;;;;;0.98;0.20;;;9.50;80.90;;;;;;6235242;23;20032;-82
2021/01/29 14:02:49;;;;;;;0.20;0.20;;;9.20;83.70;;;;;;6234091;23;20407;-83
2021/01/29 14:05:22;;;;;;;0.38;0.38;;;9.10;85.90;;;;;;6235485;23;20030;-83
2021/01/29 14:07:49;;;;;;;1.88;0.40;;;9.00;86.90;;;;;;6236237;23;20007;-83
2021/01/29 14:10:28;;;;;;;0.47;0.30;;;8.80;89.70;;;;;;6212718;23;20016;-83
2021/01/29 14:13:20;;;;;;;1.23;0.40;;;;;;;;;;6241347;22;20016;-83
2021/01/29 14:16:13;;;;;;;2.28;0.40;;;8.10;94.90;;;;;;6200859;23;20008;-82
2021/01/29 14:19:02;;;;;;;1.95;0.60;;;7.90;99.30;;;;;;6235690;23;20011;-82
2021/01/29 14:21:51;;;;;;;2.63;0.93;;;7.70;99.90;;;;;;6236419;23;20005;-82
2021/01/29 14:24:35;;;;;;;1.00;0.38;;;7.50;99.90;;;;;;6234451;23;20001;-82
2021/01/29 14:27:12;;;;;;;2.72;0.40;;;7.50;99.90;;;;;;6235620;23;20016;-82
2021/01/29 14:30:10;;;;;;;1.00;0.65;;;7.50;99.90;;;;;;6236052;23;20001;-82
2021/01/29 14:32:50;;;;;;;2.05;0.40;;;7.60;99.90;;;;;;6207515;23;20004;-83
2021/01/29 14:35:23;;;;;;;1.23;0.47;;;7.80;99.90;;;;;;6234787;23;20027;-83
2021/01/29 14:37:55;;;;;;;1.15;0.20;;;7.80;99.90;;;;;;6233530;23;20001;-82
2021/01/29 14:40:56;;;;;;;0.47;0.23;;;7.90;99.90;;;;;;6233990;23;20004;-83
2021/01/29 14:44:00;;;;;;;0.10;0.10;;;7.90;98.50;;;;;;6233893;23;20007;-82
2021/01/29 14:46:36;;;;;;;1.55;0.35;;;8.10;95.50;;;;;;6233429;23;20060;-83
2021/01/29 14:49:17;;;;;;;0.32;0.13;;;8.20;95.50;;;;;;6233751;23;20008;-83
2021/01/29 14:52:06;;;;;;;1.00;0.57;;;8.30;95.00;;;;;;6233419;23;20011;-82
2021/01/29 14:54:32;;;;;;;0.75;0.50;;;8.20;93.10;;;;;;6233988;23;20008;-83
2021/01/29 14:57:15;;;;;;;1.73;0.70;;;8.10;92.50;;;;;;6232303;23;20043;-82
2021/01/29 14:59:54;;;;;;;0.30;0.20;;;8.00;92.40;;;;;;6218355;23;20001;-83
2021/01/29 15:02:23;;;;;;;3.78;0.60;;;8.00;92.80;;;;;;6216350;23;20004;-82
2021/01/29 15:04:55;;;;;;;0.28;0.20;;;8.00;92.70;;;;;;6215801;23;20007;-83
2021/01/29 15:07:35;;;;;;;2.80;0.20;;;8.00;92.70;;;;;;6216411;23;20000;-83
2021/01/29 15:10:04;;;;;;;1.27;0.38;;;7.90;91.90;;;;;;6189432;23;20008;-85
2021/01/29 15:12:32;;;;;;;0.32;0.20;;;7.90;92.20;;;;;;6216532;23;19997;-82
2021/01/29 15:15:00;;;;;;;0.20;0.00;;;7.80;92.30;;;;;;6190690;23;19996;-84
2021/01/29 15:17:28;;;;;;;2.65;0.85;;;7.80;92.00;;;;;;6216652;23;20046;-83
2021/01/29 15:20:12;;;;;;;2.10;0.52;;;7.80;92.20;;;;;;6217772;23;20008;-84
2021/01/29 15:22:38;;;;;;;2.00;0.20;;;7.70;92.20;;;;;;6226672;23;20010;-84
2021/01/29 15:25:21;;;;;;;0.10;0.10;;;7.60;92.00;;;;;;6229800;23;20055;-84
2021/01/29 15:27:47;;;;;;;0.88;0.20;;;7.60;92.00;;;;;;6231346;23;20001;-84
2021/01/29 15:30:32;;;;;;;0.25;0.20;;;7.60;92.00;;;;;;6231355;23;20016;-83
2021/01/29 15:32:58;;;;;;;0.30;0.30;;;7.60;92.50;;;;;;6203502;23;20007;-84
2021/01/29 15:35:29;;;;;;;1.42;1.30;;;7.50;92.90;;;;;;6224914;23;20016;-83
2021/01/29 15:37:59;;;;;;;0.52;0.43;;;7.50;93.30;;;;;;6231484;23;20000;-83
2021/01/29 15:40:31;;;;;;;0.15;0.15;;;7.40;93.50;;;;;;6230946;23;20004;-83
2021/01/29 15:43:19;;;;;;;3.83;2.15;;;7.30;93.80;;;;;;6229588;23;20000;-83
2021/01/29 15:45:45;;;;;;;1.00;0.70;;;7.20;94.20;;;;;;6204303;23;20009;-82
2021/01/29 15:48:14;;;;;;;0.85;0.55;;;7.20;94.20;;;;;;6230940;23;20000;-84
2021/01/29 15:51:08;;;;;;;0.70;0.70;;;7.10;93.80;;;;;;6230571;23;20004;-83
2021/01/29 15:53:51;;;;;;;4.25;2.72;;;7.10;93.70;;;;;;6230167;23;20055;-83
2021/01/29 15:56:22;;;;;;;;;;;7.10;93.20;;;;;;6232580;23;20459;-83
2021/01/29 15:58:51;;;;;;;0.98;0.50;;;7.10;93.00;;;;;;6230291;23;20598;-82
2021/01/29 16:01:37;;;;;;;0.30;0.30;;;7.10;93.40;;;;;;6231139;23;20054;-83
2021/01/29 16:04:05;;;;;;;0.63;0.30;;;7.00;93.40;;;;;;6230299;23;20000;-83
2021/01/29 16:06:44;;;;;;;2.70;1.27;;;7.00;93.30;;;;;;6203671;23;19996;-83
2021/01/29 16:09:15;;;;;;;1.05;0.68;;;7.00;93.60;;;;;;6205500;23;20022;-81
2021/01/29 16:11:41;;;;;;;1.92;0.98;;;6.90;94.20;;;;;;6235007;23;20011;-82
2021/01/29 16:14:13;;;;;;;0.50;0.45;;;6.90;94.80;;;;;;6208079;23;20001;-83
2021/01/29 16:16:41;;;;;;;0.97;0.33;;;6.80;95.60;;;;;;6232017;23;20047;-83
2021/01/29 16:19:23;;;;;;;1.33;1.15;;;6.70;96.60;;;;;;6231385;23;19997;-83
2021/01/29 16:21:50;;;;;;;0.90;0.90;;;6.60;97.20;;;;;;6205876;23;20011;-83
2021/01/29 16:24:19;;;;;;;1.13;0.80;;;6.50;98.00;;;;;;6230487;23;20228;-83
2021/01/29 16:26:51;;;;;;;0.63;0.50;;;6.50;98.20;;;;;;6231223;23;20011;-85
2021/01/29 16:29:24;;;;;;;1.48;0.47;;;6.40;98.40;;;;;;6228751;23;20044;-84
2021/01/29 16:31:51;;;;;;;0.55;0.30;;;6.40;98.90;;;;;;6227744;23;20001;-84
2021/01/29 16:34:24;;;;;;;3.72;0.68;;;6.30;99.30;;;;;;6200793;23;20064;-84
2021/01/29 16:36:52;;;;;;;0.75;0.28;;;6.30;99.00;;;;;;6229342;23;19993;-84
2021/01/29 16:39:31;;;;;;;0.80;0.20;;;6.40;98.80;;;;;;6230512;23;20001;-84
2021/01/29 16:42:28;;;;;;;2.72;0.45;;;6.40;98.70;;;;;;6230748;23;19997;-84
2021/01/29 16:45:28;;;;;;;1.13;0.20;;;6.40;98.50;;;;;;6231268;23;20012;-85
2021/01/29 16:48:28;;;;;;;0.93;0.35;;;6.40;97.80;;;;;;6233279;23;19996;-84
2021/01/29 16:51:03;;;;;;;1.38;0.40;;;6.50;97.40;;;;;;6232328;23;20015;-85
2021/01/29 16:53:35;;;;;;;3.30;0.95;;;6.40;98.00;;;;;;6231631;23;20028;-84
2021/01/29 16:56:19;;;;;;;3.60;2.05;;;6.30;98.30;;;;;;6232499;23;20433;-85
2021/01/29 16:59:03;;;;;;;4.97;4.15;;;6.30;98.30;;;;;;6232149;23;20000;-85
2021/01/29 17:01:49;;;;;;;5.75;3.13;;;6.30;98.60;;;;;;6232769;23;20001;-84
2021/01/29 17:04:16;;;;;;;4.00;3.03;;;6.30;98.80;;;;;;6232399;23;20079;-87
2021/01/29 17:06:48;;;;;;;5.40;2.50;;;6.20;99.00;;;;;;6205057;23;20004;-85
2021/01/29 17:09:21;;;;;;;2.83;1.80;;;6.20;99.10;;;;;;6233147;23;20004;-83
2021/01/29 17:11:50;;;;;;;4.72;2.38;;;6.20;99.00;;;;;;6233394;23;20020;-84
2021/01/29 17:14:20;;;;;;;3.45;1.05;;;6.30;99.00;;;;;;6233411;23;20000;-84
2021/01/29 17:16:53;;;;;;;2.67;0.85;;;6.30;98.90;;;;;;6233830;23;20004;-84
2021/01/29 17:19:23;;;;;;;4.00;1.38;;;6.40;98.70;;;;;;6233178;23;20011;-83
2021/01/29 17:22:18;;;;;;;3.88;0.75;;;6.40;98.40;;;;;;6233614;23;20012;-84
2021/01/29 17:24:50;;;;;;;6.68;0.60;;;6.50;98.20;;;;;;6232782;23;20001;-85
2021/01/29 17:27:21;;;;;;;2.10;1.52;;;6.50;98.10;;;;;;6231629;23;20468;-84
2021/01/29 17:29:53;;;;;;;2.72;0.75;;;6.50;98.10;;;;;;6230996;23;19997;-83
2021/01/29 17:32:34;;;;;;;5.55;1.27;;;6.50;97.80;;;;;;6231263;23;20508;-83
2021/01/29 17:35:07;;;;;;;26.80;15.27;;;6.50;97.60;;;;;;6233559;23;20005;-86
2021/01/29 17:37:34;;;;;;;8.35;2.40;;;6.50;97.40;;;;;;6232252;23;19997;-80
2021/01/29 17:40:00;;;;;;;2.03;1.08;;;6.60;97.10;;;;;;6233769;23;20020;-79
2021/01/29 17:42:34;;;;;;;4.20;0.82;;;6.70;99.50;;;;;;6230335;23;20019;-86
2021/01/29 17:45:03;;;;;;;2.28;1.25;;;6.60;96.90;;;;;;6223330;23;20012;-85
2021/01/29 17:47:32;;;;;;;2.00;1.10;;;6.60;97.10;;;;;;6227587;23;20091;-79
2021/01/29 17:50:20;;;;;;;7.22;3.40;;;6.60;97.20;;;;;;6226787;23;20056;-80
2021/01/29 17:52:54;;;;;;;2.95;0.82;;;6.60;97.10;;;;;;6226534;23;20047;-80
2021/01/29 17:55:42;;;;;;;2.67;1.20;;;6.70;98.60;;;;;;6225360;23;20039;-78
2021/01/29 17:58:17;;;;;;;5.05;1.55;;;6.70;97.20;;;;;;6226040;23;20106;-80
2021/01/29 18:00:57;;;;;;;3.55;1.33;;;6.60;97.50;;;;;;6221712;23;20043;-80
2021/01/29 18:03:23;;;;;;;3.97;0.98;;;6.60;97.30;;;;;;6222207;23;20297;-81
2021/01/29 18:05:54;;;;;;;2.85;1.15;;;6.70;98.20;;;;;;6222005;23;20040;-81
2021/01/29 18:08:45;;;;;;;3.85;1.10;;;6.50;97.20;;;;;;6222760;23;20011;-80
2021/01/29 18:11:29;;;;;;;2.55;1.48;;;6.60;97.10;;;;;;6222313;23;19997;-81
2021/01/29 18:13:57;;;;;;;3.33;1.65;;;6.50;97.00;;;;;;6222551;23;20004;-81
2021/01/29 18:16:32;;;;;;;3.33;1.80;;;6.60;97.30;;;;;;6196380;23;20341;-81
2021/01/29 18:18:58;;;;;;;2.25;1.05;;;6.50;97.10;;;;;;6222955;23;20007;-79
2021/01/29 18:21:31;;;;;;;3.88;0.80;;;6.50;97.00;;;;;;6195490;23;20032;-80
2021/01/29 18:24:04;;;;;;;2.58;0.65;;;6.50;96.70;;;;;;6222757;23;20000;-81
2021/01/29 18:26:31;;;;;;;3.10;1.13;;;6.50;96.80;;;;;;6223416;23;20001;-81
2021/01/29 18:29:02;;;;;;;3.53;0.80;;;6.50;96.50;;;;;;6223746;23;19997;-81
2021/01/29 18:31:33;;;;;;;2.25;0.90;;;6.50;96.40;;;;;;6224329;23;20009;-80
2021/01/29 18:34:01;;;;;;;3.78;1.00;;;6.50;96.60;;;;;;6223733;23;20001;-81
2021/01/29 18:36:30;;;;;;;3.70;1.55;;;6.50;96.70;;;;;;6224242;23;19997;-81
2021/01/29 18:38:56;;;;;;;6.22;1.83;;;;;;;;;;6223036;23;20459;-81
2021/01/29 18:41:22;;;;;;;11.00;3.50;;;6.60;99.90;;;;;;6221754;23;20059;-81
2021/01/29 18:43:48;;;;;;;7.47;2.28;;;6.50;99.90;;;;;;6222300;23;20385;-81
2021/01/29 18:46:14;;;;;;;3.55;1.30;;;6.40;98.00;;;;;;6224130;23;20047;-82
2021/01/29 18:48:42;;;;;;;5.97;1.52;;;6.40;98.40;;;;;;6224194;23;20005;-82
2021/01/29 18:51:08;;;;;;;2.35;1.17;;;6.40;98.60;;;;;;6223768;23;20031;-82
2021/01/29 18:53:34;;;;;;;4.40;1.25;;;6.40;98.50;;;;;;6196175;23;20005;-82
2021/01/29 18:56:00;;;;;;;2.22;0.65;;;;;;;;;;6222987;23;20024;-81
2021/01/29 18:58:26;;;;;;;4.47;1.02;;;6.40;99.30;;;;;;6196550;23;20083;-81
2021/01/29 19:00:52;;;;;;;2.45;1.10;;;6.30;99.90;;;;;;6195697;23;20395;-82
2021/01/29 19:03:18;;;;;;;1.90;0.80;;;6.30;99.90;;;;;;6222456;23;20011;-81
2021/01/29 19:05:43;;;;;;;3.28;0.98;;;6.30;99.90;;;;;;6224428;23;20008;-81
2021/01/29 19:08:09;;;;;;;2.90;0.82;;;6.30;99.90;;;;;;6222691;23;20000;-80
2021/01/29 19:10:35;;;;;;;4.90;1.10;;;6.30;99.90;;;;;;6222634;23;20448;-81
2021/01/29 19:13:02;;;;;;;5.75;1.10;;;6.30;99.90;;;;;;6222992;23;20008;-81
2021/01/29 19:15:29;;;;;;;4.93;1.00;;;6.30;99.90;;;;;;6224489;23;20003;-81
2021/01/29 19:17:55;;;;;;;6.03;1.00;;;6.30;99.30;;;;;;6224102;23;20031;-82
2021/01/29 19:20:24;;;;;;;6.78;1.25;;;6.30;99.60;;;;;;6197150;23;20095;-81
2021/01/29 19:22:51;;;;;;;1.92;1.10;;;6.30;99.70;;;;;;6223630;23;20001;-81
2021/01/29 19:25:19;;;;;;;5.47;1.15;;;6.30;99.70;;;;;;6224546;23;20000;-81
2021/01/29 19:27:45;;;;;;;13.38;7.45;;;6.30;99.60;;;;;;6223774;23;20009;-82
2021/01/29 19:30:14;;;;;;;4.07;1.85;;;6.30;99.60;;;;;;6235000;22;20003;-80
2021/01/29 19:32:40;;;;;;;1.85;1.00;;;6.30;99.30;;;;;;6237248;22;20031;-79
2021/01/29 19:35:08;;;;;;;4.15;1.02;;;6.30;99.30;;;;;;6211276;23;20024;-81
2021/01/29 19:37:33;;;;;;;1.05;0.63;;;6.30;98.90;;;;;;6211698;23;20088;-78
2021/01/29 19:39:59;;;;;;;2.63;0.93;;;6.40;98.80;;;;;;6211706;22;19997;-80
2021/01/29 19:42:28;;;;;;;2.53;1.27;;;6.40;98.40;;;;;;6209960;23;20051;-82
2021/01/29 19:44:54;;;;;;;1.88;0.60;;;6.40;98.60;;;;;;6210432;22;20008;-79
2021/01/29 19:47:19;;;;;;;3.95;0.88;;;6.40;98.40;;;;;;6236753;22;20056;-80
2021/01/29 19:49:46;;;;;;;1.45;0.90;;;6.40;98.20;;;;;;6239321;23;20043;-81
2021/01/29 19:52:11;;;;;;;1.63;0.60;;;6.40;98.00;;;;;;6212766;23;20155;-81
2021/01/29 19:54:37;;;;;;;4.88;1.00;;;6.40;97.80;;;;;;6240032;23;20008;-79
2021/01/29 19:57:09;;;;;;;3.60;0.70;;;6.40;97.80;;;;;;6239544;23;20047;-80
2021/01/29 19:59:35;;;;;;;2.58;0.85;;;6.30;97.40;;;;;;6213367;23;20056;-80
2021/01/29 20:02:02;;;;;;;2.22;0.90;;;6.30;97.30;;;;;;6213984;23;20001;-79
2021/01/29 20:04:29;;;;;;;0.90;0.60;;;6.30;97.10;;;;;;6240596;22;20009;-79
2021/01/29 20:06:55;;;;;;;1.67;0.77;;;6.40;96.70;;;;;;6230474;23;20104;-81
2021/01/29 20:09:22;;;;;;;3.95;1.05;;;6.40;96.70;;;;;;6219947;23;20004;-83
2021/01/29 20:11:48;;;;;;;1.42;0.65;;;6.40;96.90;;;;;;6192168;23;20016;-82
2021/01/29 20:14:15;;;;;;;0.98;0.55;;;6.40;96.60;;;;;;6191738;23;20083;-79
2021/01/29 20:16:40;;;;;;;1.13;0.45;;;6.40;96.20;;;;;;6221061;23;20008;-81
2021/01/29 20:19:06;;;;;;;1.60;0.38;;;6.30;96.20;;;;;;6192554;23;20000;-82
2021/01/29 20:21:32;;;;;;;0.90;0.43;;;6.40;96.30;;;;;;6194029;23;20024;-82
2021/01/29 20:23:58;;;;;;;19.63;9.25;;;6.40;96.30;;;;;;6194562;23;20103;-82
2021/01/29 20:26:24;;;;;;;1.55;0.77;;;6.40;96.40;;;;;;6221787;23;20039;-81
2021/01/29 20:28:50;;;;;;;2.25;0.52;;;6.30;96.50;;;;;;6195092;23;20004;-82
2021/01/29 20:31:17;;;;;;;0.40;0.30;;;6.30;96.50;;;;;;6194674;23;20447;-81